createdAt,value
2018-05-23T00:00:58.875Z,17.87
2018-05-23T00:03:28.575Z,18.43
2018-05-23T00:05:56.454Z,18.03
2018-05-23T00:08:24.534Z,16.80
2018-05-23T00:10:52.575Z,17.43
2018-05-23T00:13:20.516Z,17.07
2018-05-23T00:15:48.315Z,17.67
2018-05-23T00:18:16.174Z,16.77
2018-05-23T00:20:43.994Z,17.67
2018-05-23T00:23:12.216Z,17.50
2018-05-23T00:25:40.213Z,17.57
2018-05-23T00:28:08.657Z,17.73
2018-05-23T00:30:36.595Z,19.43
2018-05-23T00:33:04.454Z,17.37
2018-05-23T00:35:32.334Z,17.80
2018-05-23T00:38:00.213Z,18.73
2018-05-23T00:40:28.235Z,17.67
2018-05-23T00:42:56.213Z,18.73
2018-05-23T00:45:24.034Z,18.33
2018-05-23T00:47:53.475Z,17.23
2018-05-23T00:50:21.532Z,16.20
2018-05-23T00:52:50.815Z,17.10
2018-05-23T00:55:30.736Z,19.83
2018-05-23T00:57:58.614Z,17.50
2018-05-23T01:00:28.917Z,16.77
2018-05-23T01:02:56.855Z,17.67
2018-05-23T01:05:25.655Z,17.13
2018-05-23T01:07:53.815Z,16.47
2018-05-23T01:10:21.754Z,16.70
2018-05-23T01:12:49.654Z,16.97
2018-05-23T01:15:17.534Z,18.13
2018-05-23T01:17:45.462Z,19.10
2018-05-23T01:20:13.335Z,19.53
2018-05-23T01:22:42.094Z,20.03
2018-05-23T01:25:09.978Z,20.73
2018-05-23T01:27:38.034Z,19.37
2018-05-23T01:30:06.054Z,19.40
2018-05-23T01:32:33.934Z,19.63
2018-05-23T01:35:01.776Z,19.73
2018-05-23T01:37:30.396Z,20.23
2018-05-23T01:39:59.894Z,20.53
2018-05-23T01:42:27.738Z,20.60
2018-05-23T01:44:55.854Z,22.00
2018-05-23T01:47:23.734Z,18.73
2018-05-23T01:49:51.574Z,19.87
2018-05-23T01:52:19.474Z,20.10
2018-05-23T01:54:47.360Z,20.37
2018-05-23T01:57:15.175Z,18.93
2018-05-23T01:59:43.195Z,19.73
2018-05-23T02:02:11.195Z,18.97
2018-05-23T02:04:39.255Z,17.33
2018-05-23T02:07:07.354Z,17.83
2018-05-23T02:09:35.735Z,18.90
2018-05-23T02:12:03.695Z,18.30
2018-05-23T02:14:31.559Z,19.03
2018-05-23T02:16:59.516Z,18.87
2018-05-23T02:19:27.496Z,19.93
2018-05-23T02:21:55.354Z,18.47
2018-05-23T02:24:23.193Z,17.80
2018-05-23T02:26:51.054Z,17.47
2018-05-23T02:29:19.314Z,17.70
2018-05-23T02:31:47.315Z,18.87
2018-05-23T02:34:15.213Z,17.93
2018-05-23T02:36:43.417Z,18.37
2018-05-23T02:39:11.334Z,17.87
2018-05-23T02:41:39.334Z,17.53
2018-05-23T02:44:07.457Z,17.43
2018-05-23T02:46:35.614Z,17.77
2018-05-23T02:49:03.435Z,18.80
2018-05-23T02:51:31.357Z,19.33
2018-05-23T02:53:59.296Z,18.40
2018-05-23T02:56:27.499Z,18.40
2018-05-23T03:01:27.254Z,18.47
2018-05-23T03:03:55.214Z,18.43
2018-05-23T03:06:23.394Z,18.37
2018-05-23T03:08:51.334Z,17.67
2018-05-23T03:11:19.224Z,18.77
2018-05-23T03:13:47.093Z,18.43
2018-05-23T03:16:14.914Z,19.30
2018-05-23T03:18:42.774Z,18.57
2018-05-23T03:21:11.254Z,18.30
2018-05-23T03:23:39.693Z,19.43
2018-05-23T03:26:07.555Z,18.13
2018-05-23T03:28:35.734Z,19.67
2018-05-23T03:31:03.694Z,18.97
2018-05-23T03:33:31.719Z,18.40
2018-05-23T03:35:59.699Z,17.30
2018-05-23T03:38:27.554Z,16.83
2018-05-23T03:40:56.334Z,17.77
2018-05-23T03:43:24.514Z,16.60
2018-05-23T03:45:52.415Z,17.20
2018-05-23T03:48:20.754Z,15.70
2018-05-23T03:50:48.734Z,14.57
2018-05-23T03:53:16.696Z,12.17
2018-05-23T03:55:44.954Z,13.67
2018-05-23T03:58:12.795Z,11.90
2018-05-23T04:00:53.240Z,12.93
2018-05-23T04:03:33.100Z,13.33
2018-05-23T04:06:12.763Z,13.57
2018-05-23T04:08:41.580Z,12.30
2018-05-23T04:11:09.721Z,13.83
2018-05-23T04:13:37.659Z,14.87
2018-05-23T04:16:06.020Z,13.60
2018-05-23T04:18:34.341Z,15.17
2018-05-23T04:21:06.961Z,14.30
2018-05-23T04:23:35.255Z,14.87
2018-05-23T04:26:03.315Z,14.90
2018-05-23T04:28:31.054Z,13.77
2018-05-23T04:30:58.974Z,13.70
2018-05-23T04:33:26.914Z,13.50
2018-05-23T04:35:54.879Z,13.27
2018-05-23T04:38:24.215Z,13.20
2018-05-23T04:40:52.276Z,12.83
2018-05-23T04:43:20.154Z,12.10
2018-05-23T04:45:48.094Z,12.60
2018-05-23T04:48:15.934Z,13.30
2018-05-23T04:50:44.099Z,12.10
2018-05-23T04:53:11.954Z,12.13
2018-05-23T04:55:39.855Z,12.03
2018-05-23T04:58:07.798Z,12.13
2018-05-23T05:00:36.076Z,12.23
2018-05-23T05:03:04.083Z,11.00
2018-05-23T05:05:32.203Z,11.80
2018-05-23T05:08:00.142Z,10.67
2018-05-23T05:10:28.102Z,11.83
2018-05-23T05:12:55.943Z,10.90
2018-05-23T05:15:24.663Z,11.63
2018-05-23T05:17:52.543Z,11.27
2018-05-23T05:20:20.703Z,11.10
2018-05-23T05:22:48.623Z,10.40
2018-05-23T05:25:17.243Z,11.33
2018-05-23T05:27:46.782Z,10.57
2018-05-23T05:30:14.740Z,11.23
2018-05-23T05:32:43.411Z,10.90
2018-05-23T05:35:11.261Z,10.80
2018-05-23T05:37:39.322Z,10.97
2018-05-23T05:40:07.304Z,10.20
2018-05-23T05:42:34.977Z,10.10
2018-05-23T05:45:02.679Z,11.00
2018-05-23T05:47:31.196Z,10.87
2018-05-23T05:49:58.856Z,9.93
2018-05-23T05:52:26.536Z,9.47
2018-05-23T05:54:54.577Z,9.80
2018-05-23T05:57:29.005Z,9.40
2018-05-23T06:02:28.977Z,9.97
2018-05-23T06:04:56.857Z,9.93
2018-05-23T06:07:24.997Z,9.53
2018-05-23T06:09:52.844Z,9.23
2018-05-23T06:12:20.737Z,9.40
2018-05-23T06:14:48.578Z,9.20
2018-05-23T06:17:17.223Z,9.67
2018-05-23T06:19:45.119Z,9.23
2018-05-23T06:22:13.191Z,9.60
2018-05-23T06:24:41.297Z,10.07
2018-05-23T06:27:09.093Z,9.33
2018-05-23T06:29:36.959Z,9.27
2018-05-23T06:32:04.778Z,8.63
2018-05-23T06:34:33.398Z,8.57
2018-05-23T06:37:02.018Z,9.33
2018-05-23T06:39:30.107Z,9.40
2018-05-23T06:41:58.098Z,9.20
2018-05-23T06:44:27.298Z,9.17
2018-05-23T06:46:55.258Z,8.77
2018-05-23T06:49:23.282Z,8.87
2018-05-23T06:51:51.239Z,8.37
2018-05-23T06:54:19.738Z,8.80
2018-05-23T06:56:47.598Z,8.27
2018-05-23T06:59:15.518Z,8.47
2018-05-23T07:01:45.157Z,7.70
2018-05-23T07:04:13.018Z,8.67
2018-05-23T07:06:40.977Z,7.73
2018-05-23T07:09:08.919Z,8.10
2018-05-23T07:11:36.737Z,8.07
2018-05-23T07:14:04.919Z,7.50
2018-05-23T07:16:32.783Z,8.17
2018-05-23T07:19:00.715Z,7.93
2018-05-23T07:21:28.454Z,8.03
2018-05-23T07:23:56.375Z,7.23
2018-05-23T07:26:24.854Z,7.30
2018-05-23T07:28:52.697Z,7.50
2018-05-23T07:31:20.554Z,7.30
2018-05-23T07:33:48.414Z,7.70
2018-05-23T07:36:16.858Z,7.33
2018-05-23T07:38:44.975Z,7.30
2018-05-23T07:41:12.797Z,6.97
2018-05-23T07:43:40.655Z,7.07
2018-05-23T07:46:08.397Z,7.23
2018-05-23T07:48:36.474Z,6.53
2018-05-23T07:51:04.374Z,6.67
2018-05-23T07:53:32.476Z,6.37
2018-05-23T07:56:00.315Z,6.20
2018-05-23T07:58:28.154Z,6.67
2018-05-23T08:00:55.994Z,7.03
2018-05-23T08:03:23.874Z,6.90
2018-05-23T08:05:51.614Z,6.43
2018-05-23T08:08:19.355Z,6.60
2018-05-23T08:10:47.036Z,6.50
2018-05-23T08:13:14.875Z,6.33
2018-05-23T08:15:42.843Z,6.13
2018-05-23T08:18:10.715Z,5.93
2018-05-23T08:20:39.055Z,5.57
2018-05-23T08:23:06.935Z,6.93
2018-05-23T08:25:34.874Z,6.60
2018-05-23T08:28:02.775Z,6.60
2018-05-23T08:30:30.675Z,6.33
2018-05-23T08:32:58.556Z,6.60
2018-05-23T08:35:27.155Z,6.70
2018-05-23T08:37:54.915Z,6.87
2018-05-23T08:40:22.936Z,6.63
2018-05-23T08:42:50.814Z,5.77
2018-05-23T08:45:19.238Z,6.20
2018-05-23T08:47:47.194Z,6.20
2018-05-23T08:50:15.142Z,6.20
2018-05-23T08:52:43.001Z,5.87
2018-05-23T08:55:11.036Z,5.53
2018-05-23T08:57:38.975Z,6.03
2018-05-23T09:00:06.682Z,6.03
2018-05-23T09:02:35.096Z,6.70
2018-05-23T09:05:02.974Z,6.90
2018-05-23T09:07:30.877Z,6.93
2018-05-23T09:09:58.776Z,7.27
2018-05-23T09:12:26.936Z,7.53
2018-05-23T09:14:54.836Z,7.53
2018-05-23T09:17:22.877Z,8.03
2018-05-23T09:19:50.776Z,7.47
2018-05-23T09:22:18.776Z,8.20
2018-05-23T09:24:47.035Z,7.97
2018-05-23T09:27:14.956Z,8.60
2018-05-23T09:29:42.916Z,7.50
2018-05-23T09:32:10.983Z,7.43
2018-05-23T09:34:38.737Z,8.07
2018-05-23T09:37:06.536Z,7.63
2018-05-23T09:39:34.476Z,7.93
2018-05-23T09:42:02.502Z,8.13
2018-05-23T09:44:30.393Z,7.40
2018-05-23T09:46:58.621Z,6.60
2018-05-23T09:49:26.601Z,7.17
2018-05-23T09:51:54.461Z,7.50
2018-05-23T09:54:22.381Z,6.80
2018-05-23T09:56:50.481Z,7.70
2018-05-23T09:59:19.341Z,7.87
2018-05-23T10:01:47.299Z,8.57
2018-05-23T10:04:15.275Z,8.37
2018-05-23T10:06:43.073Z,7.40
2018-05-23T10:09:11.254Z,6.87
2018-05-23T10:11:39.413Z,6.67
2018-05-23T10:14:07.496Z,6.63
2018-05-23T10:16:35.416Z,6.90
2018-05-23T10:19:03.374Z,6.93
2018-05-23T10:21:31.335Z,6.53
2018-05-23T10:23:59.574Z,5.97
2018-05-23T10:26:27.582Z,6.23
2018-05-23T10:28:55.574Z,7.20
2018-05-23T10:31:23.435Z,7.40
2018-05-23T10:33:51.474Z,6.53
2018-05-23T10:36:19.379Z,6.57
2018-05-23T10:38:47.914Z,7.00
2018-05-23T10:41:15.736Z,6.70
2018-05-23T10:43:43.714Z,6.90
2018-05-23T10:46:11.507Z,6.47
2018-05-23T10:48:39.355Z,6.83
2018-05-23T10:51:07.254Z,6.37
2018-05-23T10:53:34.896Z,6.97
2018-05-23T10:56:02.815Z,6.00
2018-05-23T10:58:31.515Z,5.70
2018-05-23T11:01:00.096Z,7.00
2018-05-23T11:03:27.817Z,6.40
2018-05-23T11:05:55.841Z,6.40
2018-05-23T11:08:23.698Z,6.80
2018-05-23T11:10:51.636Z,6.90
2018-05-23T11:13:20.298Z,6.90
2018-05-23T11:15:48.687Z,7.17
2018-05-23T11:18:16.816Z,7.20
2018-05-23T11:20:44.601Z,6.87
2018-05-23T11:23:12.815Z,7.00
2018-05-23T11:25:40.656Z,6.97
2018-05-23T11:28:08.415Z,6.97
2018-05-23T11:30:36.376Z,7.30
2018-05-23T11:33:04.295Z,7.20
2018-05-23T11:35:32.178Z,7.00
2018-05-23T11:38:00.055Z,6.80
2018-05-23T11:40:27.856Z,7.40
2018-05-23T11:42:55.675Z,8.17
2018-05-23T11:45:23.523Z,14.30
2018-05-23T11:47:51.315Z,8.40
2018-05-23T11:50:19.423Z,8.50
2018-05-23T11:52:47.604Z,7.70
2018-05-23T11:55:15.440Z,7.97
2018-05-23T11:57:43.379Z,8.37
2018-05-23T12:00:11.258Z,8.60
2018-05-23T12:02:39.219Z,8.43
2018-05-23T12:05:07.139Z,8.40
2018-05-23T12:07:34.979Z,7.87
2018-05-23T12:10:04.717Z,8.37
2018-05-23T12:12:32.595Z,7.77
2018-05-23T12:15:00.500Z,7.57
2018-05-23T12:17:28.339Z,6.30
2018-05-23T12:19:56.154Z,6.87
2018-05-23T12:22:24.014Z,7.10
2018-05-23T12:24:52.099Z,7.00
2018-05-23T12:27:20.156Z,6.77
2018-05-23T12:29:47.995Z,6.40
2018-05-23T12:32:15.855Z,6.93
2018-05-23T12:34:43.658Z,6.67
2018-05-23T12:37:11.974Z,6.33
2018-05-23T12:39:39.875Z,5.90
2018-05-23T12:42:07.954Z,5.37
2018-05-23T12:44:36.254Z,5.60
2018-05-23T12:47:04.134Z,6.10
2018-05-23T12:49:32.102Z,5.70
2018-05-23T12:51:59.934Z,5.70
2018-05-23T12:54:27.674Z,5.93
2018-05-23T12:56:55.655Z,5.63
2018-05-23T12:59:23.635Z,4.93
2018-05-23T13:01:51.555Z,5.97
2018-05-23T13:04:19.435Z,5.93
2018-05-23T13:06:47.256Z,5.80
2018-05-23T13:09:15.257Z,5.57
2018-05-23T13:11:44.597Z,5.43
2018-05-23T13:14:13.035Z,5.90
2018-05-23T13:16:40.975Z,5.33
2018-05-23T13:19:09.335Z,5.70
2018-05-23T13:21:37.454Z,5.60
2018-05-23T13:24:05.615Z,5.53
2018-05-23T13:26:33.776Z,5.80
2018-05-23T13:29:01.635Z,6.00
2018-05-23T13:31:29.594Z,6.10
2018-05-23T13:33:57.435Z,6.17
2018-05-23T13:36:25.535Z,5.97
2018-05-23T13:38:53.358Z,5.77
2018-05-23T13:41:22.057Z,6.67
2018-05-23T13:43:49.983Z,6.57
2018-05-23T13:46:20.096Z,6.10
2018-05-23T13:48:47.999Z,6.47
2018-05-23T13:51:15.935Z,6.03
2018-05-23T13:53:43.781Z,6.30
2018-05-23T13:56:12.639Z,6.10
2018-05-23T13:58:40.875Z,6.87
2018-05-23T14:01:09.095Z,6.03
2018-05-23T14:03:36.976Z,6.77
2018-05-23T14:06:05.379Z,6.17
2018-05-23T14:08:33.540Z,6.27
2018-05-23T14:11:01.660Z,6.03
2018-05-23T14:13:29.962Z,6.50
2018-05-23T14:15:58.399Z,5.80
2018-05-23T14:18:26.401Z,6.63
2018-05-23T14:20:54.279Z,6.37
2018-05-23T14:23:22.899Z,6.50
2018-05-23T14:25:52.142Z,7.00
2018-05-23T14:28:19.988Z,6.50
2018-05-23T14:30:47.907Z,6.63
2018-05-23T14:33:15.759Z,6.57
2018-05-23T14:35:43.687Z,6.73
2018-05-23T14:38:11.639Z,5.83
2018-05-23T14:40:39.499Z,6.00
2018-05-23T14:43:07.461Z,5.67
2018-05-23T14:45:35.380Z,6.17
2018-05-23T14:48:03.280Z,6.00
2018-05-23T14:50:31.239Z,6.50
2018-05-23T14:52:59.138Z,6.03
2018-05-23T14:55:27.039Z,6.77
2018-05-23T14:57:54.861Z,6.97
2018-05-23T15:00:22.573Z,6.90
2018-05-23T15:02:50.501Z,6.13
2018-05-23T15:05:18.642Z,7.43
2018-05-23T15:07:46.681Z,6.97
2018-05-23T15:10:14.461Z,6.87
2018-05-23T15:12:42.662Z,6.57
2018-05-23T15:15:11.582Z,6.73
2018-05-23T15:17:39.384Z,7.00
2018-05-23T15:20:07.578Z,7.23
2018-05-23T15:22:35.530Z,6.50
2018-05-23T15:25:04.784Z,7.00
2018-05-23T15:27:33.139Z,7.07
2018-05-23T15:30:00.959Z,6.37
2018-05-23T15:32:28.919Z,7.13
2018-05-23T15:34:56.759Z,7.03
2018-05-23T15:37:24.577Z,6.63
2018-05-23T15:39:54.386Z,6.80
2018-05-23T15:42:22.298Z,6.23
2018-05-23T15:44:50.318Z,6.33
2018-05-23T15:47:18.218Z,6.90
2018-05-23T15:49:47.258Z,7.27
2018-05-23T15:52:15.458Z,6.70
2018-05-23T15:54:43.381Z,8.30
2018-05-23T15:57:11.318Z,8.30
2018-05-23T15:59:39.198Z,8.40
2018-05-23T16:02:07.275Z,8.43
2018-05-23T16:04:35.243Z,8.63
2018-05-23T16:07:03.135Z,8.97
2018-05-23T16:09:30.989Z,9.80
2018-05-23T16:11:59.254Z,9.50
2018-05-23T16:14:27.215Z,9.30
2018-05-23T16:16:55.895Z,9.67
2018-05-23T16:19:23.755Z,7.67
2018-05-23T16:21:51.734Z,6.13
2018-05-23T16:24:19.475Z,6.63
2018-05-23T16:26:47.474Z,7.20
2018-05-23T16:29:15.734Z,7.13
2018-05-23T16:31:43.816Z,7.47
2018-05-23T16:34:11.777Z,8.27
2018-05-23T16:36:39.614Z,8.83
2018-05-23T16:39:08.276Z,8.37
2018-05-23T16:41:36.495Z,9.50
2018-05-23T16:44:04.375Z,9.30
2018-05-23T16:46:32.456Z,8.63
2018-05-23T16:49:00.414Z,9.60
2018-05-23T16:51:28.196Z,9.33
2018-05-23T16:53:56.114Z,9.47
2018-05-23T16:56:24.095Z,10.37
2018-05-23T16:58:51.919Z,10.40
2018-05-23T17:01:20.278Z,11.13
2018-05-23T17:03:48.155Z,10.47
2018-05-23T17:06:16.095Z,10.10
2018-05-23T17:08:44.080Z,9.40
2018-05-23T17:11:12.000Z,10.07
2018-05-23T17:13:39.780Z,9.50
2018-05-23T17:16:07.901Z,10.17
2018-05-23T17:18:36.401Z,10.03
2018-05-23T17:21:05.200Z,9.67
2018-05-23T17:23:33.121Z,9.60
2018-05-23T17:26:00.860Z,8.80
2018-05-23T17:28:28.820Z,9.60
2018-05-23T17:30:56.700Z,9.97
2018-05-23T17:33:24.573Z,9.67
2018-05-23T17:35:52.260Z,9.40
2018-05-23T17:38:20.720Z,9.20
2018-05-23T17:40:48.600Z,9.47
2018-05-23T17:43:16.639Z,9.77
2018-05-23T17:45:44.640Z,9.57
2018-05-23T17:48:12.919Z,9.47
2018-05-23T17:50:41.297Z,10.13
2018-05-23T17:53:09.357Z,9.63
2018-05-23T17:55:37.374Z,10.00
2018-05-23T17:58:05.335Z,10.60
2018-05-23T18:03:05.968Z,11.33
2018-05-23T18:05:34.279Z,10.80
2018-05-23T18:08:02.270Z,9.87
2018-05-23T18:10:30.855Z,10.17
2018-05-23T18:12:58.737Z,10.70
2018-05-23T18:15:26.918Z,11.30
2018-05-23T18:17:54.992Z,10.70
2018-05-23T18:20:22.889Z,10.60
2018-05-23T18:22:50.875Z,11.07
2018-05-23T18:25:18.716Z,10.67
2018-05-23T18:27:47.400Z,11.33
2018-05-23T18:30:15.537Z,11.00
2018-05-23T18:32:43.458Z,11.17
2018-05-23T18:35:11.258Z,11.87
2018-05-23T18:37:39.230Z,11.63
2018-05-23T18:40:07.258Z,10.93
2018-05-23T18:42:35.217Z,10.30
2018-05-23T18:45:02.947Z,11.40
2018-05-23T18:47:31.159Z,11.73
2018-05-23T18:49:59.036Z,10.80
2018-05-23T18:52:27.078Z,11.23
2018-05-23T18:54:55.258Z,12.43
2018-05-23T18:57:23.197Z,12.20
2018-05-23T18:59:51.278Z,11.80
2018-05-23T19:02:19.959Z,11.10
2018-05-23T19:04:47.907Z,12.70
2018-05-23T19:07:16.070Z,12.70
2018-05-23T19:09:43.979Z,12.20
2018-05-23T19:12:11.840Z,12.67
2018-05-23T19:14:39.722Z,11.40
2018-05-23T19:17:07.640Z,11.63
2018-05-23T19:19:35.688Z,12.97
2018-05-23T19:22:03.822Z,12.13
2018-05-23T19:24:32.540Z,12.27
2018-05-23T19:27:00.379Z,12.00
2018-05-23T19:29:29.059Z,11.93
2018-05-23T19:31:56.920Z,11.90
2018-05-23T19:34:24.899Z,12.37
2018-05-23T19:36:52.759Z,12.60
2018-05-23T19:39:20.739Z,12.77
2018-05-23T19:41:49.360Z,12.53
2018-05-23T19:44:17.322Z,11.67
2018-05-23T19:46:45.140Z,10.23
2018-05-23T19:49:13.161Z,12.17
2018-05-23T19:51:41.143Z,10.40
2018-05-23T19:54:08.899Z,10.37
2018-05-23T19:56:37.788Z,10.90
2018-05-23T19:59:05.585Z,11.07
2018-05-23T20:01:33.434Z,12.23
2018-05-23T20:04:01.436Z,11.77
2018-05-23T20:06:29.323Z,12.53
2018-05-23T20:08:56.988Z,12.50
2018-05-23T20:11:24.915Z,11.93
2018-05-23T20:13:52.902Z,12.43
2018-05-23T20:16:20.637Z,12.93
2018-05-23T20:18:48.494Z,11.50
2018-05-23T20:21:16.639Z,10.50
2018-05-23T20:23:44.949Z,10.60
2018-05-23T20:26:12.801Z,10.70
2018-05-23T20:28:40.717Z,11.10
2018-05-23T20:31:08.955Z,11.30
2018-05-23T20:33:37.323Z,11.10
2018-05-23T20:36:05.141Z,11.20
2018-05-23T20:38:33.121Z,12.53
2018-05-23T20:41:00.925Z,12.10
2018-05-23T20:43:28.745Z,10.50
2018-05-23T20:45:56.619Z,11.37
2018-05-23T20:48:24.522Z,12.03
2018-05-23T20:50:52.324Z,14.60
2018-05-23T20:53:20.223Z,10.57
2018-05-23T20:55:48.143Z,12.40
2018-05-23T20:58:16.103Z,13.40
2018-05-23T21:00:44.060Z,13.67
2018-05-23T21:03:12.218Z,12.83
2018-05-23T21:05:40.121Z,12.43
2018-05-23T21:08:08.898Z,12.27
2018-05-23T21:10:37.062Z,12.93
2018-05-23T21:13:05.121Z,12.43
2018-05-23T21:15:33.079Z,13.50
2018-05-23T21:18:01.184Z,12.60
2018-05-23T21:20:29.063Z,12.37
2018-05-23T21:22:57.100Z,12.33
2018-05-23T21:25:25.740Z,12.70
2018-05-23T21:27:53.784Z,12.87
2018-05-23T21:30:21.718Z,13.23
2018-05-23T21:32:49.620Z,12.23
2018-05-23T21:35:17.559Z,12.43
2018-05-23T21:37:45.459Z,13.00
2018-05-23T21:40:13.538Z,12.63
2018-05-23T21:42:41.699Z,12.87
2018-05-23T21:45:09.676Z,12.97
2018-05-23T21:47:37.460Z,13.10
2018-05-23T21:50:05.298Z,12.97
2018-05-23T21:52:33.285Z,12.37
2018-05-23T21:55:01.982Z,13.23
2018-05-23T21:57:29.898Z,12.50
2018-05-23T21:59:57.978Z,12.80
2018-05-23T22:02:25.902Z,12.63
2018-05-23T22:04:54.222Z,12.40
2018-05-23T22:07:22.219Z,13.30
2018-05-23T22:09:50.080Z,14.03
2018-05-23T22:12:17.959Z,13.97
2018-05-23T22:14:46.599Z,13.23
2018-05-23T22:17:14.399Z,13.30
2018-05-23T22:19:42.399Z,12.67
2018-05-23T22:22:10.759Z,13.73
2018-05-23T22:24:39.083Z,13.37
2018-05-23T22:29:39.134Z,14.53
2018-05-23T22:32:06.934Z,13.53
2018-05-23T22:34:35.074Z,12.83
2018-05-23T22:37:02.896Z,12.90
2018-05-23T22:39:30.835Z,12.60
2018-05-23T22:41:58.795Z,13.23
2018-05-23T22:44:26.554Z,13.07
2018-05-23T22:46:54.354Z,13.70
2018-05-23T22:49:22.734Z,13.97
2018-05-23T22:51:50.474Z,14.80
2018-05-23T22:54:18.454Z,14.20
2018-05-23T22:56:46.334Z,13.43
2018-05-23T22:59:14.174Z,13.63
2018-05-23T23:01:42.240Z,13.60
2018-05-23T23:04:10.622Z,13.40
2018-05-23T23:06:39.208Z,13.00
2018-05-23T23:09:07.095Z,12.70
2018-05-23T23:11:35.260Z,12.47
2018-05-23T23:14:03.101Z,12.53
2018-05-23T23:16:31.180Z,14.07
2018-05-23T23:18:59.080Z,13.90
2018-05-23T23:21:27.360Z,13.07
2018-05-23T23:23:55.263Z,14.53
2018-05-23T23:26:23.223Z,14.77
2018-05-23T23:28:51.461Z,13.63
2018-05-23T23:31:19.261Z,14.67
2018-05-23T23:33:47.101Z,14.87
2018-05-23T23:36:15.580Z,15.47
2018-05-23T23:38:43.481Z,14.60
2018-05-23T23:41:11.260Z,14.93
2018-05-23T23:43:40.061Z,15.23
2018-05-23T23:46:07.981Z,14.97
2018-05-23T23:48:35.781Z,14.43
2018-05-23T23:51:04.860Z,14.43
2018-05-23T23:53:32.722Z,14.87
2018-05-23T23:56:00.641Z,14.23
2018-05-23T23:58:28.581Z,15.27
